Time;durP1;ratioP1;P1;durP2;ratioP2;P2;SDS_P1;SDS_P2;PMS_P1;PMS_P2;Temp;Humidity;BMP_temperature;BMP_pressure;BME280_temperature;BME280_humidity;BME280_pressure;Samples;Min_cycle;Max_cycle;Signal;HPM_P1;HPM_P2
2022/01/03 00:01:34;;;;;;;0.10;0.10;;;12.00;99.90;;;;;;5056391;28;20032;-73
2022/01/03 00:04:00;;;;;;;0.00;0.00;;;12.00;99.90;;;;;;5049134;28;20036;-75
2022/01/03 00:06:25;;;;;;;0.10;0.10;;;12.00;99.90;;;;;;5055080;28;20033;-74
2022/01/03 00:08:51;;;;;;;0.00;0.00;;;12.00;99.90;;;;;;5057147;28;20512;-74
2022/01/03 00:11:19;;;;;;;0.00;0.00;;;12.10;99.90;;;;;;5052640;28;20474;-73
2022/01/03 00:13:48;;;;;;;0.10;0.10;;;12.30;99.90;;;;;;5052659;28;20516;-72
2022/01/03 00:16:14;;;;;;;0.10;0.10;;;12.30;99.90;;;;;;5063876;28;20025;-73
2022/01/03 00:18:40;;;;;;;0.10;0.10;;;12.50;99.90;;;;;;5072657;28;20517;-73
2022/01/03 00:21:10;;;;;;;0.10;0.10;;;12.40;99.90;;;;;;5071830;28;20099;-73
2022/01/03 00:23:39;;;;;;;0.10;0.10;;;12.50;99.90;;;;;;5068837;28;20247;-74
2022/01/03 00:26:07;;;;;;;0.82;0.82;;;12.40;99.90;;;;;;5063460;28;20123;-74
2022/01/03 00:28:36;;;;;;;0.10;0.10;;;12.50;99.90;;;;;;5072602;28;20504;-74
2022/01/03 00:31:03;;;;;;;0.00;0.00;;;12.40;99.90;;;;;;5072263;28;20089;-73
2022/01/03 00:33:30;;;;;;;0.00;0.00;;;12.50;99.90;;;;;;5061299;28;20021;-73
2022/01/03 00:36:00;;;;;;;0.05;0.05;;;12.70;99.90;;;;;;5059353;28;20077;-73
2022/01/03 00:38:28;;;;;;;0.10;0.10;;;12.80;99.90;;;;;;5070380;28;20032;-74
2022/01/03 00:40:54;;;;;;;0.10;0.10;;;12.60;99.90;;;;;;5069897;28;20029;-74
2022/01/03 00:43:20;;;;;;;0.10;0.10;;;12.70;99.90;;;;;;5072302;28;20032;-73
2022/01/03 00:45:45;;;;;;;0.10;0.10;;;12.70;99.90;;;;;;5071836;28;20033;-74
2022/01/03 00:48:13;;;;;;;0.10;0.10;;;12.70;99.90;;;;;;5072129;28;20143;-73
2022/01/03 00:50:39;;;;;;;0.10;0.10;;;12.70;99.90;;;;;;5070333;28;20033;-73
2022/01/03 00:53:05;;;;;;;0.10;0.10;;;12.70;99.90;;;;;;5052832;28;20036;-73
2022/01/03 00:55:32;;;;;;;0.00;0.00;;;12.80;99.90;;;;;;5046522;28;20043;-73
2022/01/03 00:58:02;;;;;;;0.08;0.08;;;12.70;99.90;;;;;;5035664;28;20213;-72
2022/01/03 01:00:31;;;;;;;0.13;0.13;;;12.70;99.90;;;;;;5036872;28;20017;-72
2022/01/03 01:03:21;;;;;;;0.10;0.10;;;12.70;99.90;;;;;;5049903;28;20044;-73
2022/01/03 01:05:48;;;;;;;0.00;0.00;;;12.60;99.90;;;;;;5041535;28;20068;-74
2022/01/03 01:08:21;;;;;;;0.00;0.00;;;12.60;99.90;;;;;;5052889;28;20017;-73
2022/01/03 01:10:50;;;;;;;0.10;0.10;;;12.60;99.90;;;;;;5054712;28;20021;-73
2022/01/03 01:13:17;;;;;;;0.00;0.00;;;12.50;99.90;;;;;;5051413;28;20055;-73
2022/01/03 01:15:42;;;;;;;0.10;0.10;;;12.40;99.90;;;;;;5055459;28;20017;-74
2022/01/03 01:18:10;;;;;;;0.00;0.00;;;12.50;99.90;;;;;;5071302;28;20417;-74
2022/01/03 01:20:39;;;;;;;0.10;0.10;;;12.50;99.90;;;;;;5069951;28;20024;-73
2022/01/03 01:23:06;;;;;;;0.10;0.10;;;12.50;99.90;;;;;;5070646;28;20107;-73
2022/01/03 01:28:01;;;;;;;0.03;0.03;;;12.40;99.90;;;;;;5069823;28;20043;-76
2022/01/03 01:30:28;;;;;;;0.10;0.10;;;12.40;99.90;;;;;;5071414;28;20493;-76
2022/01/03 01:33:02;;;;;;;0.05;0.05;;;12.30;99.90;;;;;;5071475;28;20445;-74
2022/01/03 01:35:36;;;;;;;0.00;0.00;;;12.40;99.90;;;;;;5063522;28;20017;-73
2022/01/03 01:38:02;;;;;;;0.00;0.00;;;12.30;99.90;;;;;;5049142;28;20030;-74
2022/01/03 01:40:29;;;;;;;0.10;0.10;;;12.20;99.90;;;;;;5030961;28;20030;-74
2022/01/03 01:42:55;;;;;;;0.00;0.00;;;12.20;99.90;;;;;;5031281;28;20119;-74
2022/01/03 01:45:26;;;;;;;0.05;0.05;;;12.30;99.90;;;;;;5030755;28;20040;-73
2022/01/03 01:47:57;;;;;;;0.10;0.10;;;12.40;99.90;;;;;;5047554;28;20040;-74
2022/01/03 01:50:26;;;;;;;0.10;0.10;;;12.30;99.90;;;;;;5059944;28;20028;-73
2022/01/03 01:52:54;;;;;;;0.00;0.00;;;12.40;99.90;;;;;;5064960;28;20017;-73
2022/01/03 01:55:20;;;;;;;0.10;0.10;;;12.30;99.90;;;;;;5036708;28;20032;-76
2022/01/03 01:58:05;;;;;;;0.10;0.10;;;12.20;99.90;;;;;;5030799;28;20095;-76
2022/01/03 02:00:34;;;;;;;0.00;0.00;;;12.20;99.90;;;;;;5036420;28;20103;-74
2022/01/03 02:03:18;;;;;;;0.10;0.10;;;12.10;99.90;;;;;;5050960;28;20028;-75
2022/01/03 02:05:51;;;;;;;0.10;0.10;;;12.20;99.90;;;;;;5030533;28;20450;-72
2022/01/03 02:08:25;;;;;;;;;;;12.20;99.90;;;;;;5032092;28;20033;-73
2022/01/03 02:11:13;;;;;;;0.10;0.10;;;12.20;99.90;;;;;;5030808;28;20453;-73
2022/01/03 02:13:41;;;;;;;0.00;0.00;;;12.20;99.90;;;;;;5048265;28;20025;-76
2022/01/03 02:16:08;;;;;;;0.00;0.00;;;12.20;99.90;;;;;;5070128;28;20033;-74
2022/01/03 02:18:34;;;;;;;0.10;0.10;;;12.30;99.90;;;;;;5070123;28;20047;-72
2022/01/03 02:21:02;;;;;;;0.05;0.05;;;12.30;99.90;;;;;;5068786;28;20024;-75
2022/01/03 02:23:28;;;;;;;0.10;0.10;;;12.20;99.90;;;;;;5031208;28;20033;-73
2022/01/03 02:25:54;;;;;;;0.10;0.10;;;12.20;99.90;;;;;;5049879;28;20039;-74
2022/01/03 02:28:22;;;;;;;0.10;0.10;;;12.10;99.90;;;;;;5050135;28;20056;-73
2022/01/03 02:30:50;;;;;;;0.00;0.00;;;12.10;99.90;;;;;;5049681;28;20135;-74
2022/01/03 02:33:16;;;;;;;0.00;0.00;;;12.00;99.90;;;;;;5034371;28;20030;-72
2022/01/03 02:35:43;;;;;;;0.00;0.00;;;12.00;99.90;;;;;;5069888;28;20038;-74
2022/01/03 02:38:09;;;;;;;0.10;0.10;;;12.00;99.90;;;;;;5068046;28;20020;-73
2022/01/03 02:40:35;;;;;;;0.10;0.10;;;12.00;99.90;;;;;;5068225;28;20032;-74
2022/01/03 02:43:02;;;;;;;0.00;0.00;;;12.00;99.90;;;;;;5069749;28;20056;-72
2022/01/03 02:45:28;;;;;;;0.00;0.00;;;11.90;99.90;;;;;;5068799;28;20056;-74
2022/01/03 02:48:03;;;;;;;0.10;0.10;;;12.00;99.90;;;;;;5069910;28;20032;-73
2022/01/03 02:50:31;;;;;;;0.00;0.00;;;12.00;99.90;;;;;;5046549;28;20033;-73
2022/01/03 02:52:58;;;;;;;0.00;0.00;;;11.90;99.90;;;;;;5029780;28;20052;-73
2022/01/03 02:55:26;;;;;;;0.00;0.00;;;11.90;99.90;;;;;;5029364;28;20124;-73
2022/01/03 02:57:56;;;;;;;0.10;0.10;;;11.80;99.90;;;;;;5029845;28;20504;-73
2022/01/03 03:00:25;;;;;;;0.10;0.10;;;11.90;99.90;;;;;;5062364;28;20025;-73
2022/01/03 03:02:51;;;;;;;0.00;0.00;;;11.90;99.90;;;;;;5049817;28;20505;-73
2022/01/03 03:05:17;;;;;;;0.10;0.10;;;11.80;99.90;;;;;;5063568;28;20091;-73
2022/01/03 03:07:43;;;;;;;0.10;0.10;;;11.80;99.90;;;;;;5061913;28;20426;-73
2022/01/03 03:10:12;;;;;;;0.32;0.32;;;11.90;99.90;;;;;;5049402;28;20029;-72
2022/01/03 03:12:39;;;;;;;0.00;0.00;;;11.90;99.90;;;;;;5031596;28;20475;-73
2022/01/03 03:15:11;;;;;;;0.10;0.10;;;11.80;99.90;;;;;;5051439;28;20033;-72
2022/01/03 03:17:39;;;;;;;0.00;0.00;;;11.70;99.90;;;;;;5053694;28;20055;-72
2022/01/03 03:20:26;;;;;;;0.10;0.10;;;11.70;99.90;;;;;;5060771;28;20048;-73
2022/01/03 03:22:53;;;;;;;0.00;0.00;;;11.70;99.90;;;;;;5069637;28;20025;-74
2022/01/03 03:25:21;;;;;;;0.00;0.00;;;11.60;99.90;;;;;;5068239;28;20097;-73
2022/01/03 03:27:50;;;;;;;0.00;0.00;;;11.60;99.90;;;;;;5049617;28;20029;-73
2022/01/03 03:30:26;;;;;;;0.00;0.00;;;11.70;99.90;;;;;;5049347;28;20021;-73
2022/01/03 03:32:55;;;;;;;0.00;0.00;;;11.60;99.90;;;;;;5068134;28;20031;-73
2022/01/03 03:35:22;;;;;;;0.00;0.00;;;11.60;99.90;;;;;;5063353;28;20124;-74
2022/01/03 03:37:47;;;;;;;0.10;0.10;;;11.60;99.90;;;;;;5053332;28;20052;-73
2022/01/03 03:40:13;;;;;;;0.00;0.00;;;11.70;99.90;;;;;;5053476;28;20033;-73
2022/01/03 03:42:41;;;;;;;0.10;0.10;;;11.70;99.90;;;;;;5064368;28;20056;-74
2022/01/03 03:45:08;;;;;;;2.42;0.88;;;11.60;99.90;;;;;;5068139;28;20133;-74
2022/01/03 03:47:34;;;;;;;0.10;0.10;;;11.60;99.90;;;;;;5038534;28;20497;-73
2022/01/03 03:50:00;;;;;;;0.10;0.10;;;11.50;99.90;;;;;;5054363;28;20067;-74
2022/01/03 03:52:26;;;;;;;0.10;0.10;;;11.60;99.90;;;;;;5053419;28;20117;-74
2022/01/03 03:54:52;;;;;;;0.10;0.10;;;11.60;99.90;;;;;;5052959;28;20064;-73
2022/01/03 03:57:18;;;;;;;0.10;0.10;;;11.50;99.90;;;;;;5053511;28;20049;-73
2022/01/03 03:59:43;;;;;;;0.10;0.10;;;11.40;99.90;;;;;;5065513;28;20589;-74
2022/01/03 04:02:09;;;;;;;0.00;0.00;;;11.40;99.90;;;;;;5054837;28;20384;-73
2022/01/03 04:04:35;;;;;;;0.10;0.10;;;11.50;99.90;;;;;;5068956;28;20031;-73
2022/01/03 04:07:02;;;;;;;0.05;0.05;;;11.40;99.90;;;;;;5061007;28;20036;-73
2022/01/03 04:09:27;;;;;;;0.00;0.00;;;11.50;99.90;;;;;;5045079;28;20506;-74
2022/01/03 04:11:53;;;;;;;0.10;0.10;;;11.50;99.90;;;;;;5040674;28;20056;-74
2022/01/03 04:14:19;;;;;;;0.00;0.00;;;11.60;99.90;;;;;;5064157;28;20033;-73
2022/01/03 04:16:44;;;;;;;0.10;0.10;;;11.50;99.90;;;;;;5078199;28;20085;-73
2022/01/03 04:19:10;;;;;;;0.00;0.00;;;11.50;99.90;;;;;;5077984;28;20321;-73
2022/01/03 04:21:37;;;;;;;0.52;0.52;;;11.40;99.90;;;;;;5082303;28;20114;-73
2022/01/03 04:24:04;;;;;;;0.00;0.00;;;11.40;99.90;;;;;;5085849;28;20028;-73
2022/01/03 04:26:30;;;;;;;0.20;0.20;;;11.30;99.90;;;;;;5086666;28;20032;-73
2022/01/03 04:28:56;;;;;;;0.10;0.10;;;11.30;99.90;;;;;;5083230;28;20027;-74
2022/01/03 04:31:21;;;;;;;0.32;0.32;;;11.30;99.90;;;;;;5079490;28;20025;-73
2022/01/03 04:33:47;;;;;;;0.10;0.10;;;11.40;99.90;;;;;;5070086;28;20102;-73
2022/01/03 04:36:13;;;;;;;2.65;1.27;;;11.40;99.90;;;;;;5072464;28;20032;-73
2022/01/03 04:38:39;;;;;;;0.00;0.00;;;11.50;99.90;;;;;;5088164;28;20080;-73
2022/01/03 04:41:04;;;;;;;0.00;0.00;;;11.40;99.90;;;;;;5073559;28;20306;-73
2022/01/03 04:43:30;;;;;;;0.10;0.10;;;11.50;99.90;;;;;;5075262;28;20067;-73
2022/01/03 04:45:56;;;;;;;0.00;0.00;;;11.60;99.90;;;;;;5071853;28;20028;-73
2022/01/03 04:48:23;;;;;;;0.00;0.00;;;11.60;99.90;;;;;;5079365;28;20055;-73
2022/01/03 04:50:49;;;;;;;0.00;0.00;;;11.50;99.90;;;;;;5081673;28;20489;-73
2022/01/03 04:53:14;;;;;;;0.00;0.00;;;11.60;99.90;;;;;;5085176;28;20108;-74
2022/01/03 04:55:40;;;;;;;0.10;0.10;;;11.50;99.90;;;;;;5068491;28;20079;-73
2022/01/03 04:58:05;;;;;;;2.72;1.27;;;11.40;99.90;;;;;;5058807;28;20032;-73
2022/01/03 05:00:31;;;;;;;0.00;0.00;;;11.40;99.90;;;;;;5065826;28;20493;-73
2022/01/03 05:02:57;;;;;;;0.10;0.10;;;11.40;99.90;;;;;;5035257;28;20020;-73
2022/01/03 05:05:22;;;;;;;0.10;0.10;;;11.40;99.90;;;;;;5070647;28;20086;-73
2022/01/03 05:07:48;;;;;;;0.10;0.10;;;11.40;99.90;;;;;;5056043;28;20114;-73
2022/01/03 05:10:15;;;;;;;0.10;0.10;;;11.40;99.90;;;;;;5036270;28;20136;-73
2022/01/03 05:12:40;;;;;;;0.10;0.10;;;11.30;99.90;;;;;;5049558;28;20117;-73
2022/01/03 05:15:06;;;;;;;0.10;0.10;;;11.20;99.90;;;;;;5051010;28;20461;-74
2022/01/03 05:17:32;;;;;;;0.00;0.00;;;10.80;99.90;;;;;;5050644;28;20052;-72
2022/01/03 05:19:59;;;;;;;0.00;0.00;;;10.60;99.90;;;;;;5067288;28;20501;-72
2022/01/03 05:22:25;;;;;;;0.00;0.00;;;10.50;99.90;;;;;;5071034;28;20048;-73
2022/01/03 05:24:51;;;;;;;0.00;0.00;;;10.40;99.90;;;;;;5059425;28;20025;-72
2022/01/03 05:27:17;;;;;;;0.10;0.10;;;10.40;99.90;;;;;;5052221;28;20620;-73
2022/01/03 05:29:42;;;;;;;0.10;0.10;;;10.40;99.90;;;;;;5070502;28;20072;-73
2022/01/03 05:32:08;;;;;;;0.00;0.00;;;10.40;99.90;;;;;;5066648;28;20052;-73
2022/01/03 05:34:34;;;;;;;0.00;0.00;;;10.40;99.90;;;;;;5050239;28;20025;-73
2022/01/03 05:37:00;;;;;;;0.65;0.65;;;10.30;99.90;;;;;;5050935;28;20025;-72
2022/01/03 05:39:26;;;;;;;0.80;0.80;;;10.40;99.90;;;;;;5038896;28;20083;-74
2022/01/03 05:41:51;;;;;;;0.40;0.40;;;10.40;99.90;;;;;;5098936;22;20486;-79
2022/01/03 05:44:17;;;;;;;0.10;0.10;;;10.30;99.90;;;;;;5068101;28;20035;-79
2022/01/03 05:46:42;;;;;;;0.10;0.10;;;10.30;99.90;;;;;;5048146;28;20486;-79
2022/01/03 05:49:08;;;;;;;0.10;0.10;;;10.50;99.90;;;;;;5056748;28;20028;-78
2022/01/03 05:51:34;;;;;;;0.10;0.10;;;10.30;99.90;;;;;;5054913;28;20024;-79
2022/01/03 05:54:00;;;;;;;0.10;0.10;;;10.30;99.90;;;;;;5049776;28;20119;-79
2022/01/03 05:56:26;;;;;;;0.10;0.10;;;10.40;99.90;;;;;;5041305;28;20029;-79
2022/01/03 05:58:51;;;;;;;0.10;0.10;;;10.40;99.90;;;;;;5030621;28;20025;-78
2022/01/03 06:01:19;;;;;;;0.10;0.10;;;10.50;99.90;;;;;;5039461;28;20025;-79
2022/01/03 06:03:45;;;;;;;0.10;0.10;;;10.50;99.90;;;;;;5035433;28;20029;-80
2022/01/03 06:08:37;;;;;;;0.10;0.10;;;11.00;99.90;;;;;;5045999;28;20025;-79
2022/01/03 06:11:03;;;;;;;0.10;0.10;;;10.50;99.90;;;;;;5048768;28;20064;-80
2022/01/03 06:13:29;;;;;;;0.10;0.10;;;10.50;99.90;;;;;;5028867;28;20032;-79
2022/01/03 06:15:55;;;;;;;0.10;0.10;;;10.60;99.90;;;;;;5045830;28;20029;-81
2022/01/03 06:18:21;;;;;;;0.10;0.10;;;10.80;99.90;;;;;;5049805;28;20501;-79
2022/01/03 06:20:49;;;;;;;0.08;0.08;;;10.60;99.90;;;;;;5050571;28;20045;-79
2022/01/03 06:23:16;;;;;;;0.00;0.00;;;10.60;99.90;;;;;;5050647;28;20051;-79
2022/01/03 06:25:42;;;;;;;0.00;0.00;;;10.70;99.90;;;;;;5049840;28;20067;-79
2022/01/03 06:28:09;;;;;;;0.10;0.10;;;10.60;99.90;;;;;;5050039;28;20037;-80
2022/01/03 06:30:39;;;;;;;0.10;0.10;;;10.60;99.90;;;;;;5050573;28;20062;-80
2022/01/03 06:33:06;;;;;;;0.10;0.10;;;10.80;99.90;;;;;;5050579;28;20021;-79
2022/01/03 06:35:33;;;;;;;0.10;0.10;;;10.60;99.90;;;;;;5049795;28;20150;-79
2022/01/03 06:37:59;;;;;;;0.00;0.00;;;10.60;99.90;;;;;;5031229;28;20029;-80
2022/01/03 06:40:25;;;;;;;0.00;0.00;;;10.60;99.90;;;;;;5042584;28;20040;-79
2022/01/03 06:42:51;;;;;;;0.10;0.10;;;10.70;99.90;;;;;;5045676;28;20036;-78
2022/01/03 06:45:17;;;;;;;0.10;0.10;;;10.60;99.90;;;;;;5049656;28;20029;-79
2022/01/03 06:47:43;;;;;;;0.10;0.10;;;10.60;99.90;;;;;;5050124;28;20494;-80
2022/01/03 06:50:09;;;;;;;0.00;0.00;;;10.60;99.90;;;;;;5049688;28;20482;-77
2022/01/03 06:52:38;;;;;;;4.47;3.03;;;11.30;99.90;;;;;;5040600;28;20034;-80
2022/01/03 06:55:05;;;;;;;0.00;0.00;;;10.60;99.90;;;;;;5038592;28;20028;-78
2022/01/03 06:57:31;;;;;;;0.10;0.10;;;10.70;99.90;;;;;;5048130;28;20063;-79
2022/01/03 06:59:57;;;;;;;0.05;0.05;;;10.80;99.90;;;;;;5048942;28;20401;-79
2022/01/03 07:02:23;;;;;;;0.00;0.00;;;10.80;99.90;;;;;;5040981;28;20096;-79
2022/01/03 07:04:49;;;;;;;0.00;0.00;;;10.60;99.90;;;;;;5044499;28;20063;-80
2022/01/03 07:07:15;;;;;;;0.10;0.10;;;10.70;99.90;;;;;;5048940;28;20033;-80
2022/01/03 07:09:41;;;;;;;0.10;0.10;;;10.60;99.90;;;;;;5028016;28;20088;-80
2022/01/03 07:12:07;;;;;;;0.10;0.10;;;10.50;99.90;;;;;;5046822;28;20530;-79
2022/01/03 07:19:55;;;;;;;0.00;0.00;;;10.40;99.90;;;;;;5042939;28;20037;-78
2022/01/03 07:22:21;;;;;;;0.05;0.05;;;10.30;99.90;;;;;;5041887;28;20025;-80
2022/01/03 07:24:47;;;;;;;0.10;0.10;;;10.30;99.90;;;;;;5026787;28;20047;-79
2022/01/03 07:27:14;;;;;;;0.00;0.00;;;10.30;99.90;;;;;;5049172;28;20204;-80
2022/01/03 07:29:41;;;;;;;0.10;0.10;;;10.40;99.90;;;;;;5030105;28;20034;-80
2022/01/03 07:32:07;;;;;;;0.10;0.10;;;10.30;99.90;;;;;;5043880;28;20101;-80
2022/01/03 07:34:33;;;;;;;0.05;0.05;;;10.30;99.90;;;;;;5052869;28;20128;-81
2022/01/03 07:36:59;;;;;;;0.10;0.10;;;10.70;99.90;;;;;;5051136;28;20025;-78
2022/01/03 07:39:25;;;;;;;0.00;0.00;;;10.30;99.90;;;;;;5046183;28;20055;-78
2022/01/03 07:41:50;;;;;;;0.08;0.08;;;10.30;99.90;;;;;;5046908;28;20033;-81
2022/01/03 07:44:16;;;;;;;0.00;0.00;;;10.30;99.90;;;;;;5043077;28;20025;-77
2022/01/03 07:46:42;;;;;;;0.00;0.00;;;10.40;99.90;;;;;;5045224;28;20032;-80
2022/01/03 07:49:08;;;;;;;0.32;0.32;;;10.30;99.90;;;;;;5041475;28;20034;-81
2022/01/03 07:51:33;;;;;;;0.10;0.10;;;10.30;99.90;;;;;;5040831;28;20100;-81
2022/01/03 07:53:59;;;;;;;0.10;0.10;;;10.30;99.90;;;;;;5045141;28;20627;-81
2022/01/03 07:56:25;;;;;;;0.00;0.00;;;10.30;99.90;;;;;;5039933;28;20096;-80
2022/01/03 07:58:52;;;;;;;0.05;0.05;;;10.10;99.90;;;;;;5039644;28;20108;-79
2022/01/03 08:01:17;;;;;;;0.10;0.10;;;10.10;99.90;;;;;;5042324;28;20040;-80
2022/01/03 08:03:43;;;;;;;0.00;0.00;;;10.10;99.90;;;;;;5043553;28;20037;-81
2022/01/03 08:06:09;;;;;;;0.10;0.10;;;10.10;99.90;;;;;;5036900;28;20387;-79
2022/01/03 08:08:37;;;;;;;0.10;0.10;;;10.20;99.90;;;;;;5040632;28;20164;-80
2022/01/03 08:11:03;;;;;;;0.10;0.10;;;10.20;99.90;;;;;;5041627;28;20490;-81
2022/01/03 08:13:29;;;;;;;0.10;0.10;;;10.30;99.90;;;;;;5043410;28;20112;-80
2022/01/03 08:15:54;;;;;;;0.10;0.10;;;11.10;99.90;;;;;;5037744;28;20047;-81
2022/01/03 08:18:20;;;;;;;0.10;0.10;;;11.00;99.90;;;;;;5036992;28;20171;-81
2022/01/03 08:20:46;;;;;;;0.10;0.10;;;11.10;99.90;;;;;;5045004;28;20033;-81
2022/01/03 08:23:11;;;;;;;0.03;0.03;;;10.30;99.90;;;;;;5047109;28;20060;-80
2022/01/03 08:25:37;;;;;;;0.10;0.10;;;10.40;99.90;;;;;;5046825;28;20032;-80
2022/01/03 08:28:08;;;;;;;0.00;0.00;;;11.30;99.90;;;;;;5039988;28;20025;-81
2022/01/03 08:30:34;;;;;;;0.10;0.10;;;10.20;99.90;;;;;;5039899;28;20017;-80
2022/01/03 08:33:01;;;;;;;0.10;0.10;;;11.10;99.90;;;;;;5043438;28;20021;-80
2022/01/03 08:35:27;;;;;;;0.10;0.10;;;11.20;99.90;;;;;;5044453;28;20056;-80
2022/01/03 08:37:55;;;;;;;0.10;0.10;;;10.40;99.90;;;;;;5038016;28;20075;-80
2022/01/03 08:40:21;;;;;;;0.10;0.10;;;11.20;99.90;;;;;;5043520;28;20548;-80
2022/01/03 08:42:46;;;;;;;0.00;0.00;;;10.50;99.90;;;;;;5034564;28;20033;-79
2022/01/03 08:45:12;;;;;;;0.10;0.10;;;10.60;99.90;;;;;;5046430;28;20033;-78
2022/01/03 08:47:38;;;;;;;0.55;0.55;;;10.70;99.90;;;;;;5043434;28;20089;-81
2022/01/03 08:50:05;;;;;;;0.10;0.10;;;10.70;99.90;;;;;;5038494;28;20494;-80
2022/01/03 08:52:31;;;;;;;0.00;0.00;;;10.80;99.90;;;;;;5031645;28;20371;-81
2022/01/03 08:54:57;;;;;;;0.10;0.10;;;10.80;99.90;;;;;;5041510;28;20037;-80
2022/01/03 08:57:23;;;;;;;0.10;0.10;;;10.80;99.90;;;;;;5040605;28;20079;-80
2022/01/03 08:59:49;;;;;;;0.00;0.00;;;11.10;99.90;;;;;;5038524;28;20498;-81
2022/01/03 09:02:16;;;;;;;0.00;0.00;;;10.90;99.90;;;;;;5042756;28;21444;-81
2022/01/03 09:04:43;;;;;;;0.00;0.00;;;11.30;99.90;;;;;;5036028;28;20029;-80
2022/01/03 09:07:09;;;;;;;0.00;0.00;;;10.90;99.90;;;;;;5031207;28;20386;-80
2022/01/03 09:09:35;;;;;;;0.00;0.00;;;10.90;99.90;;;;;;5040914;28;20056;-80
2022/01/03 09:12:03;;;;;;;0.10;0.10;;;11.30;99.90;;;;;;5041082;28;20041;-74
2022/01/03 09:14:28;;;;;;;0.10;0.10;;;10.90;99.90;;;;;;5041756;28;20029;-74
2022/01/03 09:16:54;;;;;;;0.10;0.10;;;11.20;99.90;;;;;;5040733;28;20028;-73
2022/01/03 09:19:20;;;;;;;0.20;0.20;;;11.10;99.90;;;;;;5041651;28;20082;-73
2022/01/03 09:21:46;;;;;;;0.10;0.10;;;11.20;99.90;;;;;;5042829;28;20777;-73
2022/01/03 09:24:32;;;;;;;0.00;0.00;;;11.40;99.90;;;;;;5039474;28;20021;-75
2022/01/03 09:29:43;;;;;;;0.00;0.00;;;11.40;99.90;;;;;;5047149;28;20406;-74
2022/01/03 09:32:09;;;;;;;0.00;0.00;;;11.40;99.90;;;;;;5039317;28;20029;-75
2022/01/03 09:34:35;;;;;;;0.00;0.00;;;11.50;99.90;;;;;;5040987;28;20029;-73
2022/01/03 09:37:01;;;;;;;0.00;0.00;;;11.50;99.90;;;;;;5043276;28;20083;-74
2022/01/03 09:39:26;;;;;;;0.10;0.10;;;11.60;99.90;;;;;;5038623;28;20021;-75
2022/01/03 09:41:57;;;;;;;0.10;0.10;;;11.50;99.90;;;;;;5042396;28;20499;-75
2022/01/03 09:44:28;;;;;;;0.10;0.10;;;11.60;99.90;;;;;;5043196;28;20021;-74
2022/01/03 09:46:56;;;;;;;0.10;0.10;;;11.60;99.90;;;;;;5041355;28;20053;-74
2022/01/03 09:49:23;;;;;;;0.10;0.10;;;11.20;99.90;;;;;;5042946;28;20029;-74
2022/01/03 09:51:49;;;;;;;0.00;0.00;;;11.30;99.90;;;;;;5041819;28;20064;-74
2022/01/03 09:54:15;;;;;;;0.10;0.10;;;11.20;99.90;;;;;;5034996;28;20056;-73
2022/01/03 09:56:42;;;;;;;0.10;0.10;;;11.20;99.90;;;;;;5040053;28;20017;-76
2022/01/03 09:59:08;;;;;;;1.65;1.33;;;11.20;99.90;;;;;;5040955;28;20027;-73
2022/01/03 10:01:35;;;;;;;0.00;0.00;;;11.10;99.90;;;;;;5041729;28;20041;-74
2022/01/03 10:04:02;;;;;;;0.10;0.10;;;11.10;99.90;;;;;;5043085;28;20083;-73
2022/01/03 10:06:28;;;;;;;0.10;0.10;;;11.30;99.90;;;;;;5039056;28;20487;-75
2022/01/03 10:08:55;;;;;;;0.00;0.00;;;11.40;99.90;;;;;;5046229;28;20025;-75
2022/01/03 10:11:22;;;;;;;0.65;0.65;;;11.50;99.90;;;;;;5038026;28;20045;-75
2022/01/03 10:13:49;;;;;;;0.00;0.00;;;11.50;99.90;;;;;;5043992;28;20490;-74
2022/01/03 10:16:15;;;;;;;0.00;0.00;;;11.60;99.90;;;;;;5041442;28;20021;-73
2022/01/03 10:18:41;;;;;;;0.00;0.00;;;11.60;99.90;;;;;;5042290;28;20483;-74
2022/01/03 10:21:07;;;;;;;0.05;0.05;;;11.70;99.90;;;;;;5029356;28;20040;-74
2022/01/03 10:23:34;;;;;;;0.00;0.00;;;11.60;99.90;;;;;;5032683;28;20439;-75
2022/01/03 10:26:18;;;;;;;0.10;0.10;;;11.60;99.90;;;;;;5039760;28;20021;-74
2022/01/03 10:28:44;;;;;;;0.10;0.10;;;11.70;99.90;;;;;;5041583;28;20120;-75
2022/01/03 10:31:18;;;;;;;0.00;0.00;;;11.70;99.90;;;;;;5036335;28;20029;-74
2022/01/03 10:33:44;;;;;;;0.00;0.00;;;11.70;99.90;;;;;;5029153;28;20077;-74
2022/01/03 10:36:27;;;;;;;0.00;0.00;;;11.80;99.90;;;;;;5041057;28;20036;-74
2022/01/03 10:38:52;;;;;;;0.10;0.10;;;11.80;99.90;;;;;;5044293;28;20025;-75
2022/01/03 10:41:20;;;;;;;0.00;0.00;;;11.80;99.90;;;;;;5040918;28;20029;-74
2022/01/03 10:43:49;;;;;;;0.00;0.00;;;11.80;99.90;;;;;;5034176;28;20033;-74
2022/01/03 10:46:21;;;;;;;0.10;0.10;;;11.80;99.90;;;;;;5036664;28;20099;-74
2022/01/03 10:48:50;;;;;;;0.00;0.00;;;11.80;99.90;;;;;;5039117;28;20108;-74
2022/01/03 10:51:28;;;;;;;0.10;0.10;;;11.80;99.90;;;;;;5038249;28;20029;-73
2022/01/03 10:53:55;;;;;;;0.00;0.00;;;12.00;99.90;;;;;;5038824;28;20498;-74
2022/01/03 10:56:32;;;;;;;0.10;0.10;;;11.90;99.90;;;;;;5038602;28;20026;-74
2022/01/03 10:59:01;;;;;;;0.10;0.10;;;11.90;99.90;;;;;;5038049;28;20029;-74
2022/01/03 11:01:28;;;;;;;0.00;0.00;;;12.00;99.90;;;;;;5037733;28;20104;-72
2022/01/03 11:03:56;;;;;;;0.10;0.10;;;12.00;99.90;;;;;;5036973;28;20033;-74
2022/01/03 11:11:38;;;;;;;0.00;0.00;;;12.00;99.90;;;;;;5037241;28;20452;-74
2022/01/03 11:14:04;;;;;;;0.03;0.03;;;12.10;99.90;;;;;;5039682;28;20033;-74
2022/01/03 11:16:42;;;;;;;0.10;0.10;;;12.10;99.90;;;;;;5037134;28;20075;-75
2022/01/03 11:19:09;;;;;;;0.10;0.10;;;12.10;99.90;;;;;;5038532;28;20057;-74
2022/01/03 11:21:44;;;;;;;0.00;0.00;;;12.20;99.90;;;;;;5040682;28;20254;-75
2022/01/03 11:24:14;;;;;;;0.00;0.00;;;12.20;99.90;;;;;;5035876;28;20079;-74
2022/01/03 11:26:47;;;;;;;0.00;0.00;;;12.30;99.90;;;;;;5035072;28;20029;-73
2022/01/03 11:29:14;;;;;;;0.10;0.10;;;12.30;99.90;;;;;;5034426;28;20032;-73
2022/01/03 11:31:40;;;;;;;0.10;0.10;;;12.30;99.90;;;;;;5022914;28;20494;-74
2022/01/03 11:34:08;;;;;;;0.00;0.00;;;12.50;99.90;;;;;;5043631;28;20028;-75
2022/01/03 11:36:34;;;;;;;0.00;0.00;;;12.50;99.90;;;;;;5040338;28;20020;-75
2022/01/03 11:39:08;;;;;;;0.00;0.00;;;12.40;99.90;;;;;;5037328;28;20037;-74
2022/01/03 11:41:36;;;;;;;0.10;0.10;;;12.40;99.90;;;;;;5051382;22;20435;-67
2022/01/03 11:44:03;;;;;;;0.00;0.00;;;12.50;99.90;;;;;;5036597;28;20329;-69
2022/01/03 11:46:29;;;;;;;0.00;0.00;;;12.50;99.90;;;;;;5038445;28;20018;-69
2022/01/03 11:48:57;;;;;;;0.10;0.10;;;12.50;99.90;;;;;;5038728;28;20056;-69
2022/01/03 11:51:27;;;;;;;0.03;0.03;;;12.50;99.90;;;;;;5031935;28;20025;-67
2022/01/03 11:53:53;;;;;;;0.00;0.00;;;12.50;99.90;;;;;;5022898;28;20102;-69
2022/01/03 11:56:22;;;;;;;0.10;0.10;;;12.50;99.90;;;;;;5022660;28;20025;-68
2022/01/03 12:04:40;;;;;;;0.45;0.45;;;12.60;99.90;;;;;;5019522;28;20414;-73
2022/01/03 12:07:10;;;;;;;0.00;0.00;;;12.60;99.90;;;;;;5025428;28;20053;-74
2022/01/03 12:09:39;;;;;;;0.08;0.08;;;12.70;99.90;;;;;;5025219;28;20069;-74
2022/01/03 12:12:06;;;;;;;0.00;0.00;;;12.70;99.90;;;;;;5024684;28;20096;-73
2022/01/03 12:14:39;;;;;;;0.00;0.00;;;12.70;99.90;;;;;;5022735;28;20032;-73
2022/01/03 12:17:07;;;;;;;0.10;0.10;;;12.70;99.90;;;;;;5018258;28;20026;-74
2022/01/03 12:19:46;;;;;;;0.00;0.00;;;12.60;99.90;;;;;;5013567;28;20057;-74
2022/01/03 12:22:20;;;;;;;0.00;0.00;;;12.60;99.90;;;;;;5021518;28;20067;-73
2022/01/03 12:24:53;;;;;;;0.00;0.00;;;12.60;99.90;;;;;;5019870;28;20028;-72
2022/01/03 12:27:20;;;;;;;;;;;12.60;99.90;;;;;;5023755;28;20072;-72
2022/01/03 12:29:55;;;;;;;0.00;0.00;;;12.60;99.90;;;;;;5021294;28;19910;-71
2022/01/03 12:32:22;;;;;;;0.00;0.00;;;12.60;99.90;;;;;;5026195;28;20021;-71
2022/01/03 12:35:10;;;;;;;0.10;0.10;;;12.60;99.90;;;;;;5024138;28;20026;-70
2022/01/03 12:37:42;;;;;;;0.00;0.00;;;12.60;99.90;;;;;;5027605;28;20018;-70
2022/01/03 12:40:07;;;;;;;0.00;0.00;;;12.60;99.90;;;;;;5008528;28;20027;-70
2022/01/03 12:42:48;;;;;;;0.10;0.10;;;12.60;99.90;;;;;;5022807;28;20087;-70
2022/01/03 12:45:15;;;;;;;0.00;0.00;;;12.50;99.90;;;;;;5024155;28;20037;-70
2022/01/03 12:47:41;;;;;;;0.00;0.00;;;12.50;99.90;;;;;;5021599;28;20033;-71
2022/01/03 12:50:27;;;;;;;0.00;0.00;;;12.40;99.90;;;;;;5019276;28;20025;-71
2022/01/03 12:52:54;;;;;;;0.10;0.10;;;12.40;99.90;;;;;;5026549;28;20029;-70
2022/01/03 12:55:38;;;;;;;0.00;0.00;;;12.40;99.90;;;;;;5020308;28;20022;-70
2022/01/03 12:58:16;;;;;;;0.00;0.00;;;12.40;99.90;;;;;;5023981;28;20055;-70
2022/01/03 13:00:51;;;;;;;0.10;0.10;;;12.50;99.90;;;;;;5022719;28;20018;-70
2022/01/03 13:03:23;;;;;;;0.00;0.00;;;12.40;99.90;;;;;;5020044;28;20030;-70
2022/01/03 13:06:12;;;;;;;0.10;0.10;;;12.40;99.90;;;;;;5022323;28;20036;-70
2022/01/03 13:08:48;;;;;;;0.08;0.08;;;12.40;99.90;;;;;;5016780;28;20029;-71
2022/01/03 13:11:18;;;;;;;0.00;0.00;;;12.50;99.90;;;;;;5024561;28;20022;-70
2022/01/03 13:13:46;;;;;;;0.00;0.00;;;12.50;99.90;;;;;;5024482;28;20038;-70
2022/01/03 13:16:42;;;;;;;0.00;0.00;;;12.50;99.90;;;;;;5019880;28;20090;-70